Brockwell, Arkansas
Current Conditions -  °F | °C
As of 5:15 PM on Thursday 27 Nov 2014 (Local Time) from KBVX Reporting Station
Clear Clear  
Wind Chill:   Ceiling: Unl
Heat Index:   Visibility: 10mi
Dew Point: -4°   Wind: 0mph
Humidity: 49%   Direction: NA
Pressure: 30.45"   Gusts: NA
Location:  36.14°N, 91.93°W
Report Text: KBVX 272315Z AUTO 00000KT 10SM CLR 06/M04 A3045 RMK AO1
Loading
Personal Weather Stations






























Interactive Weather Map New forecast layout! Learn more

10-Day Weather Forecast

Advertisements
Track Severe Weather on mobile